sensor_id;sensor_type;location;lat;lon;timestamp;temperature;humidity
10247;DHT22;5168;47.854;7.944;2023-07-13T00:01:28;15.80;99.90
10247;DHT22;5168;47.854;7.944;2023-07-13T00:03:56;16.00;99.90
10247;DHT22;5168;47.854;7.944;2023-07-13T00:06:22;15.40;99.90
10247;DHT22;5168;47.854;7.944;2023-07-13T00:08:47;15.40;99.90
10247;DHT22;5168;47.854;7.944;2023-07-13T00:11:15;15.50;99.90
10247;DHT22;5168;47.854;7.944;2023-07-13T00:13:41;15.50;99.90
10247;DHT22;5168;47.854;7.944;2023-07-13T00:16:07;15.30;99.90
10247;DHT22;5168;47.854;7.944;2023-07-13T00:20:59;15.50;99.90
10247;DHT22;5168;47.854;7.944;2023-07-13T00:23:35;15.90;99.90
10247;DHT22;5168;47.854;7.944;2023-07-13T00:26:02;15.90;99.90
10247;DHT22;5168;47.854;7.944;2023-07-13T00:30:54;15.80;99.90
10247;DHT22;5168;47.854;7.944;2023-07-13T00:33:19;15.10;99.90
10247;DHT22;5168;47.854;7.944;2023-07-13T00:35:45;15.20;99.90
10247;DHT22;5168;47.854;7.944;2023-07-13T00:47:56;15.20;99.90
10247;DHT22;5168;47.854;7.944;2023-07-13T00:52:51;15.30;99.90
10247;DHT22;5168;47.854;7.944;2023-07-13T00:55:19;14.90;99.90
10247;DHT22;5168;47.854;7.944;2023-07-13T00:57:45;15.30;99.90
10247;DHT22;5168;47.854;7.944;2023-07-13T01:00:12;15.20;99.90
10247;DHT22;5168;47.854;7.944;2023-07-13T01:02:39;15.10;99.90
10247;DHT22;5168;47.854;7.944;2023-07-13T01:05:11;15.20;99.90
10247;DHT22;5168;47.854;7.944;2023-07-13T01:07:37;15.30;99.90
10247;DHT22;5168;47.854;7.944;2023-07-13T01:10:03;15.10;99.90
10247;DHT22;5168;47.854;7.944;2023-07-13T01:12:29;14.70;99.90
10247;DHT22;5168;47.854;7.944;2023-07-13T01:15:00;15.00;99.90
10247;DHT22;5168;47.854;7.944;2023-07-13T01:17:28;14.60;99.90
10247;DHT22;5168;47.854;7.944;2023-07-13T01:22:20;14.30;99.90
10247;DHT22;5168;47.854;7.944;2023-07-13T01:24:53;15.00;99.90
10247;DHT22;5168;47.854;7.944;2023-07-13T01:27:25;14.50;99.90
10247;DHT22;5168;47.854;7.944;2023-07-13T01:29:52;14.90;99.90
10247;DHT22;5168;47.854;7.944;2023-07-13T01:32:23;14.20;99.90
10247;DHT22;5168;47.854;7.944;2023-07-13T01:34:51;14.30;99.90
10247;DHT22;5168;47.854;7.944;2023-07-13T01:37:19;14.10;99.90
10247;DHT22;5168;47.854;7.944;2023-07-13T01:39:45;14.40;99.90
10247;DHT22;5168;47.854;7.944;2023-07-13T01:44:36;14.10;99.90
10247;DHT22;5168;47.854;7.944;2023-07-13T01:47:02;14.30;99.90
10247;DHT22;5168;47.854;7.944;2023-07-13T01:49:28;14.40;99.90
10247;DHT22;5168;47.854;7.944;2023-07-13T01:59:11;14.10;99.90
10247;DHT22;5168;47.854;7.944;2023-07-13T02:01:37;13.40;99.90
10247;DHT22;5168;47.854;7.944;2023-07-13T02:04:03;14.40;99.90
10247;DHT22;5168;47.854;7.944;2023-07-13T02:06:28;13.90;99.90
10247;DHT22;5168;47.854;7.944;2023-07-13T02:13:46;13.90;99.90
10247;DHT22;5168;47.854;7.944;2023-07-13T02:16:11;13.50;99.90
10247;DHT22;5168;47.854;7.944;2023-07-13T02:18:37;13.50;99.90
10247;DHT22;5168;47.854;7.944;2023-07-13T02:21:03;13.40;99.90
10247;DHT22;5168;47.854;7.944;2023-07-13T02:23:29;13.90;99.90
10247;DHT22;5168;47.854;7.944;2023-07-13T02:25:56;13.30;99.90
10247;DHT22;5168;47.854;7.944;2023-07-13T02:28:22;13.00;99.90
10247;DHT22;5168;47.854;7.944;2023-07-13T02:30:47;13.70;99.90
10247;DHT22;5168;47.854;7.944;2023-07-13T02:38:05;12.90;99.90
10247;DHT22;5168;47.854;7.944;2023-07-13T02:40:30;13.30;99.90
10247;DHT22;5168;47.854;7.944;2023-07-13T02:42:59;13.10;99.90
10247;DHT22;5168;47.854;7.944;2023-07-13T02:45:24;13.30;99.90
10247;DHT22;5168;47.854;7.944;2023-07-13T02:47:50;12.80;99.90
10247;DHT22;5168;47.854;7.944;2023-07-13T02:55:08;12.90;99.90
10247;DHT22;5168;47.854;7.944;2023-07-13T02:57:33;13.10;99.90
10247;DHT22;5168;47.854;7.944;2023-07-13T02:59:59;12.60;99.90
10247;DHT22;5168;47.854;7.944;2023-07-13T03:02:25;13.40;99.90
10247;DHT22;5168;47.854;7.944;2023-07-13T03:04:54;13.00;99.90
10247;DHT22;5168;47.854;7.944;2023-07-13T03:07:20;13.10;99.90
10247;DHT22;5168;47.854;7.944;2023-07-13T03:09:45;12.70;99.90
10247;DHT22;5168;47.854;7.944;2023-07-13T03:24:21;12.90;99.90
10247;DHT22;5168;47.854;7.944;2023-07-13T03:26:48;13.10;99.90
10247;DHT22;5168;47.854;7.944;2023-07-13T03:29:14;12.80;99.90
10247;DHT22;5168;47.854;7.944;2023-07-13T03:31:40;13.50;99.90
10247;DHT22;5168;47.854;7.944;2023-07-13T03:39:01;13.10;99.90
10247;DHT22;5168;47.854;7.944;2023-07-13T03:41:27;13.00;99.90
10247;DHT22;5168;47.854;7.944;2023-07-13T03:46:19;13.00;99.90
10247;DHT22;5168;47.854;7.944;2023-07-13T03:48:46;13.20;99.90
10247;DHT22;5168;47.854;7.944;2023-07-13T03:51:14;13.20;99.90
10247;DHT22;5168;47.854;7.944;2023-07-13T03:53:42;13.20;99.90
10247;DHT22;5168;47.854;7.944;2023-07-13T03:56:08;12.70;99.90
10247;DHT22;5168;47.854;7.944;2023-07-13T03:58:37;13.70;99.90
10247;DHT22;5168;47.854;7.944;2023-07-13T04:01:05;12.80;99.90
10247;DHT22;5168;47.854;7.944;2023-07-13T04:03:31;13.30;99.90
10247;DHT22;5168;47.854;7.944;2023-07-13T04:05:59;13.30;99.90
10247;DHT22;5168;47.854;7.944;2023-07-13T04:08:34;13.10;99.90
10247;DHT22;5168;47.854;7.944;2023-07-13T04:11:00;13.30;99.90
10247;DHT22;5168;47.854;7.944;2023-07-13T04:13:26;13.50;99.90
10247;DHT22;5168;47.854;7.944;2023-07-13T04:15:52;13.30;99.90
10247;DHT22;5168;47.854;7.944;2023-07-13T04:18:18;13.60;99.90
10247;DHT22;5168;47.854;7.944;2023-07-13T04:20:46;13.50;99.90
10247;DHT22;5168;47.854;7.944;2023-07-13T04:28:04;13.70;99.90
10247;DHT22;5168;47.854;7.944;2023-07-13T04:37:49;13.60;99.90
10247;DHT22;5168;47.854;7.944;2023-07-13T04:40:18;13.50;99.90
10247;DHT22;5168;47.854;7.944;2023-07-13T04:42:45;13.70;99.90
10247;DHT22;5168;47.854;7.944;2023-07-13T04:45:12;13.50;99.90
10247;DHT22;5168;47.854;7.944;2023-07-13T04:47:38;13.80;99.90
10247;DHT22;5168;47.854;7.944;2023-07-13T04:50:06;13.40;99.90
10247;DHT22;5168;47.854;7.944;2023-07-13T04:52:31;13.90;99.90
10247;DHT22;5168;47.854;7.944;2023-07-13T04:59:50;13.80;99.90
10247;DHT22;5168;47.854;7.944;2023-07-13T05:02:16;13.80;99.90
10247;DHT22;5168;47.854;7.944;2023-07-13T05:04:41;14.00;99.90
10247;DHT22;5168;47.854;7.944;2023-07-13T05:07:07;13.70;99.90
10247;DHT22;5168;47.854;7.944;2023-07-13T05:09:32;14.20;99.90
10247;DHT22;5168;47.854;7.944;2023-07-13T05:11:58;14.40;99.90
10247;DHT22;5168;47.854;7.944;2023-07-13T05:19:15;14.60;99.90
10247;DHT22;5168;47.854;7.944;2023-07-13T05:21:41;14.50;99.90
10247;DHT22;5168;47.854;7.944;2023-07-13T05:24:07;14.60;99.90
10247;DHT22;5168;47.854;7.944;2023-07-13T05:36:16;14.00;99.90
10247;DHT22;5168;47.854;7.944;2023-07-13T05:38:42;14.70;99.90
10247;DHT22;5168;47.854;7.944;2023-07-13T05:41:07;14.50;99.90
10247;DHT22;5168;47.854;7.944;2023-07-13T05:43:33;14.80;99.90
10247;DHT22;5168;47.854;7.944;2023-07-13T05:55:44;14.40;99.90
10247;DHT22;5168;47.854;7.944;2023-07-13T05:58:11;17.40;99.90
10247;DHT22;5168;47.854;7.944;2023-07-13T06:00:36;14.80;99.90
10247;DHT22;5168;47.854;7.944;2023-07-13T06:05:28;15.00;99.90
10247;DHT22;5168;47.854;7.944;2023-07-13T06:07:54;14.60;99.90
10247;DHT22;5168;47.854;7.944;2023-07-13T06:20:04;16.40;99.90
10247;DHT22;5168;47.854;7.944;2023-07-13T06:24:56;15.60;99.90
10247;DHT22;5168;47.854;7.944;2023-07-13T06:27:21;16.40;99.90
10247;DHT22;5168;47.854;7.944;2023-07-13T06:29:47;17.10;99.90
10247;DHT22;5168;47.854;7.944;2023-07-13T06:34:38;17.10;99.90
10247;DHT22;5168;47.854;7.944;2023-07-13T06:37:04;17.60;99.90
10247;DHT22;5168;47.854;7.944;2023-07-13T06:39:30;17.90;99.90
10247;DHT22;5168;47.854;7.944;2023-07-13T06:49:13;17.40;99.90
10247;DHT22;5168;47.854;7.944;2023-07-13T06:51:38;17.50;99.90
10247;DHT22;5168;47.854;7.944;2023-07-13T06:54:04;17.30;99.90
10247;DHT22;5168;47.854;7.944;2023-07-13T07:03:47;18.20;99.90
10247;DHT22;5168;47.854;7.944;2023-07-13T07:06:19;19.10;99.90
10247;DHT22;5168;47.854;7.944;2023-07-13T07:08:45;18.90;99.90
10247;DHT22;5168;47.854;7.944;2023-07-13T07:11:18;19.20;99.90
10247;DHT22;5168;47.854;7.944;2023-07-13T07:13:43;18.70;99.90
10247;DHT22;5168;47.854;7.944;2023-07-13T07:16:09;18.50;99.90
10247;DHT22;5168;47.854;7.944;2023-07-13T07:18:35;18.20;99.90
10247;DHT22;5168;47.854;7.944;2023-07-13T07:23:26;18.40;99.90
10247;DHT22;5168;47.854;7.944;2023-07-13T07:28:18;18.70;99.90
10247;DHT22;5168;47.854;7.944;2023-07-13T07:30:48;18.70;99.90
10247;DHT22;5168;47.854;7.944;2023-07-13T07:33:14;18.30;99.90
10247;DHT22;5168;47.854;7.944;2023-07-13T07:35:40;19.40;99.90
10247;DHT22;5168;47.854;7.944;2023-07-13T07:38:06;19.40;99.90
10247;DHT22;5168;47.854;7.944;2023-07-13T07:40:31;18.50;99.90
10247;DHT22;5168;47.854;7.944;2023-07-13T07:50:15;18.80;99.90
10247;DHT22;5168;47.854;7.944;2023-07-13T07:52:41;18.20;99.90
10247;DHT22;5168;47.854;7.944;2023-07-13T08:04:52;19.70;99.90
10247;DHT22;5168;47.854;7.944;2023-07-13T08:07:18;20.70;99.90
10247;DHT22;5168;47.854;7.944;2023-07-13T08:09:43;20.10;99.90
10247;DHT22;5168;47.854;7.944;2023-07-13T08:12:09;20.30;99.90
10247;DHT22;5168;47.854;7.944;2023-07-13T08:24:23;21.00;99.90
10247;DHT22;5168;47.854;7.944;2023-07-13T08:26:49;20.90;99.90
10247;DHT22;5168;47.854;7.944;2023-07-13T08:34:07;20.90;99.90
10247;DHT22;5168;47.854;7.944;2023-07-13T08:36:33;21.10;99.90
10247;DHT22;5168;47.854;7.944;2023-07-13T08:38:58;20.50;99.90
10247;DHT22;5168;47.854;7.944;2023-07-13T08:43:57;19.80;99.90
10247;DHT22;5168;47.854;7.944;2023-07-13T08:46:25;19.40;99.90
10247;DHT22;5168;47.854;7.944;2023-07-13T08:48:53;19.00;99.90
10247;DHT22;5168;47.854;7.944;2023-07-13T08:52:13;19.40;99.90
10247;DHT22;5168;47.854;7.944;2023-07-13T08:54:39;19.50;99.90
10247;DHT22;5168;47.854;7.944;2023-07-13T08:57:13;20.40;99.90
10247;DHT22;5168;47.854;7.944;2023-07-13T08:59:39;21.10;99.90
10247;DHT22;5168;47.854;7.944;2023-07-13T09:02:39;20.90;99.90
10247;DHT22;5168;47.854;7.944;2023-07-13T09:05:14;21.10;99.90
10247;DHT22;5168;47.854;7.944;2023-07-13T09:10:48;21.70;99.90
10247;DHT22;5168;47.854;7.944;2023-07-13T09:13:37;21.50;99.90
10247;DHT22;5168;47.854;7.944;2023-07-13T09:16:05;20.80;99.90
10247;DHT22;5168;47.854;7.944;2023-07-13T09:18:37;21.40;99.90
10247;DHT22;5168;47.854;7.944;2023-07-13T09:21:15;21.10;99.90
10247;DHT22;5168;47.854;7.944;2023-07-13T09:23:42;21.90;99.90
10247;DHT22;5168;47.854;7.944;2023-07-13T09:26:20;21.50;99.90
10247;DHT22;5168;47.854;7.944;2023-07-13T09:28:59;22.10;99.90
10247;DHT22;5168;47.854;7.944;2023-07-13T09:36:25;22.80;99.90
10247;DHT22;5168;47.854;7.944;2023-07-13T09:44:18;23.10;99.90
10247;DHT22;5168;47.854;7.944;2023-07-13T09:46:53;22.90;99.90
10247;DHT22;5168;47.854;7.944;2023-07-13T09:49:26;22.40;99.90
10247;DHT22;5168;47.854;7.944;2023-07-13T09:51:59;22.50;99.90
10247;DHT22;5168;47.854;7.944;2023-07-13T09:54:26;21.40;99.90
10247;DHT22;5168;47.854;7.944;2023-07-13T09:56:59;21.90;99.90
10247;DHT22;5168;47.854;7.944;2023-07-13T09:59:34;21.60;99.90
10247;DHT22;5168;47.854;7.944;2023-07-13T10:02:00;22.30;99.90
10247;DHT22;5168;47.854;7.944;2023-07-13T10:04:32;22.30;99.90
10247;DHT22;5168;47.854;7.944;2023-07-13T10:07:08;22.10;99.90
10247;DHT22;5168;47.854;7.944;2023-07-13T10:09:34;22.30;99.90
10247;DHT22;5168;47.854;7.944;2023-07-13T10:12:00;22.30;99.90
10247;DHT22;5168;47.854;7.944;2023-07-13T10:16:58;22.10;99.90
10247;DHT22;5168;47.854;7.944;2023-07-13T10:19:31;22.30;99.90
10247;DHT22;5168;47.854;7.944;2023-07-13T10:22:31;21.70;99.90
10247;DHT22;5168;47.854;7.944;2023-07-13T10:24:59;21.80;99.90
10247;DHT22;5168;47.854;7.944;2023-07-13T10:27:34;22.40;99.90
10247;DHT22;5168;47.854;7.944;2023-07-13T10:32:37;22.60;99.90
10247;DHT22;5168;47.854;7.944;2023-07-13T10:35:03;23.40;99.90
10247;DHT22;5168;47.854;7.944;2023-07-13T10:37:46;22.90;99.90
10247;DHT22;5168;47.854;7.944;2023-07-13T10:40:17;23.00;99.90
10247;DHT22;5168;47.854;7.944;2023-07-13T10:42:47;23.10;99.90
10247;DHT22;5168;47.854;7.944;2023-07-13T10:45:18;22.40;99.90
10247;DHT22;5168;47.854;7.944;2023-07-13T10:50:20;22.50;99.90
10247;DHT22;5168;47.854;7.944;2023-07-13T10:52:49;22.10;99.90
10247;DHT22;5168;47.854;7.944;2023-07-13T10:58:38;22.30;99.90
10247;DHT22;5168;47.854;7.944;2023-07-13T11:03:55;21.70;99.90
10247;DHT22;5168;47.854;7.944;2023-07-13T11:06:38;22.00;99.90
10247;DHT22;5168;47.854;7.944;2023-07-13T11:09:36;22.10;99.90
10247;DHT22;5168;47.854;7.944;2023-07-13T11:12:10;22.00;99.90
10247;DHT22;5168;47.854;7.944;2023-07-13T11:20:30;22.80;99.90
10247;DHT22;5168;47.854;7.944;2023-07-13T11:25:43;21.90;99.90
10247;DHT22;5168;47.854;7.944;2023-07-13T11:36:15;20.70;99.90
10247;DHT22;5168;47.854;7.944;2023-07-13T11:38:47;21.30;99.90
10247;DHT22;5168;47.854;7.944;2023-07-13T11:41:23;21.70;99.90
10247;DHT22;5168;47.854;7.944;2023-07-13T11:43:51;22.70;99.90
10247;DHT22;5168;47.854;7.944;2023-07-13T11:46:22;22.70;99.90
10247;DHT22;5168;47.854;7.944;2023-07-13T11:48:49;23.60;99.90
10247;DHT22;5168;47.854;7.944;2023-07-13T11:51:36;23.20;99.70
10247;DHT22;5168;47.854;7.944;2023-07-13T11:54:31;23.90;98.60
10247;DHT22;5168;47.854;7.944;2023-07-13T11:57:01;23.90;96.80
10247;DHT22;5168;47.854;7.944;2023-07-13T11:59:32;23.90;98.50
10247;DHT22;5168;47.854;7.944;2023-07-13T12:01:59;23.60;96.90
10247;DHT22;5168;47.854;7.944;2023-07-13T12:04:31;23.60;98.00
10247;DHT22;5168;47.854;7.944;2023-07-13T12:07:06;22.20;98.60
10247;DHT22;5168;47.854;7.944;2023-07-13T12:09:33;23.00;98.00
10247;DHT22;5168;47.854;7.944;2023-07-13T12:12:01;23.10;96.30
10247;DHT22;5168;47.854;7.944;2023-07-13T12:14:27;22.80;98.10
10247;DHT22;5168;47.854;7.944;2023-07-13T12:16:54;22.50;97.70
10247;DHT22;5168;47.854;7.944;2023-07-13T12:19:25;22.30;98.10
10247;DHT22;5168;47.854;7.944;2023-07-13T12:21:59;22.50;99.10
10247;DHT22;5168;47.854;7.944;2023-07-13T12:24:25;23.10;95.40
10247;DHT22;5168;47.854;7.944;2023-07-13T12:29:59;22.80;95.70
10247;DHT22;5168;47.854;7.944;2023-07-13T12:32:26;23.80;96.20
10247;DHT22;5168;47.854;7.944;2023-07-13T12:34:56;23.60;94.90
10247;DHT22;5168;47.854;7.944;2023-07-13T12:37:23;24.00;97.30
10247;DHT22;5168;47.854;7.944;2023-07-13T12:39:49;23.90;94.40
10247;DHT22;5168;47.854;7.944;2023-07-13T12:42:28;23.70;94.10
10247;DHT22;5168;47.854;7.944;2023-07-13T12:45:01;24.00;91.50
10247;DHT22;5168;47.854;7.944;2023-07-13T12:47:28;24.30;91.90
10247;DHT22;5168;47.854;7.944;2023-07-13T12:49:58;24.00;90.50
10247;DHT22;5168;47.854;7.944;2023-07-13T12:52:34;24.10;91.20
10247;DHT22;5168;47.854;7.944;2023-07-13T12:55:20;23.70;92.80
10247;DHT22;5168;47.854;7.944;2023-07-13T12:57:56;23.90;90.10
10247;DHT22;5168;47.854;7.944;2023-07-13T13:00:29;23.70;88.80
10247;DHT22;5168;47.854;7.944;2023-07-13T13:03:00;23.80;84.80
10247;DHT22;5168;47.854;7.944;2023-07-13T13:05:29;24.00;90.50
10247;DHT22;5168;47.854;7.944;2023-07-13T13:15:13;24.40;82.00
10247;DHT22;5168;47.854;7.944;2023-07-13T13:17:39;24.30;80.40
10247;DHT22;5168;47.854;7.944;2023-07-13T13:20:16;24.30;85.00
10247;DHT22;5168;47.854;7.944;2023-07-13T13:22:42;24.50;85.40
10247;DHT22;5168;47.854;7.944;2023-07-13T13:25:10;24.50;84.10
10247;DHT22;5168;47.854;7.944;2023-07-13T13:30:03;24.50;85.70
10247;DHT22;5168;47.854;7.944;2023-07-13T13:32:29;23.90;84.80
10247;DHT22;5168;47.854;7.944;2023-07-13T13:34:54;24.00;84.10
10247;DHT22;5168;47.854;7.944;2023-07-13T13:37:23;24.20;81.90
10247;DHT22;5168;47.854;7.944;2023-07-13T13:39:50;24.40;84.50
10247;DHT22;5168;47.854;7.944;2023-07-13T13:42:17;24.50;82.90
10247;DHT22;5168;47.854;7.944;2023-07-13T13:44:43;24.40;81.40
10247;DHT22;5168;47.854;7.944;2023-07-13T13:47:29;24.20;78.30
10247;DHT22;5168;47.854;7.944;2023-07-13T13:52:21;24.30;87.10
10247;DHT22;5168;47.854;7.944;2023-07-13T13:54:47;24.50;87.80
10247;DHT22;5168;47.854;7.944;2023-07-13T13:59:39;24.50;90.70
10247;DHT22;5168;47.854;7.944;2023-07-13T14:02:28;24.60;89.40
10247;DHT22;5168;47.854;7.944;2023-07-13T14:04:59;24.50;85.50
10247;DHT22;5168;47.854;7.944;2023-07-13T14:09:54;24.20;84.70
10247;DHT22;5168;47.854;7.944;2023-07-13T14:12:20;23.80;87.00
10247;DHT22;5168;47.854;7.944;2023-07-13T14:14:46;24.20;87.30
10247;DHT22;5168;47.854;7.944;2023-07-13T14:17:22;26.10;86.50
10247;DHT22;5168;47.854;7.944;2023-07-13T14:19:50;24.10;86.50
10247;DHT22;5168;47.854;7.944;2023-07-13T14:22:17;24.30;88.80
10247;DHT22;5168;47.854;7.944;2023-07-13T14:24:44;24.00;89.60
10247;DHT22;5168;47.854;7.944;2023-07-13T14:27:11;24.30;90.00
10247;DHT22;5168;47.854;7.944;2023-07-13T14:29:37;24.20;88.90
10247;DHT22;5168;47.854;7.944;2023-07-13T14:32:03;24.10;90.00
10247;DHT22;5168;47.854;7.944;2023-07-13T14:36:56;24.40;90.30
10247;DHT22;5168;47.854;7.944;2023-07-13T14:39:25;23.70;87.20
10247;DHT22;5168;47.854;7.944;2023-07-13T14:41:53;23.80;85.00
10247;DHT22;5168;47.854;7.944;2023-07-13T14:44:23;23.70;85.70
10247;DHT22;5168;47.854;7.944;2023-07-13T14:46:49;24.00;87.10
10247;DHT22;5168;47.854;7.944;2023-07-13T14:49:30;23.90;90.20
10247;DHT22;5168;47.854;7.944;2023-07-13T14:51:57;23.30;85.00
10247;DHT22;5168;47.854;7.944;2023-07-13T14:59:16;22.90;89.80
10247;DHT22;5168;47.854;7.944;2023-07-13T15:01:44;22.10;88.00
10247;DHT22;5168;47.854;7.944;2023-07-13T15:04:10;22.40;90.70
10247;DHT22;5168;47.854;7.944;2023-07-13T15:06:56;22.50;90.70
10247;DHT22;5168;47.854;7.944;2023-07-13T15:09:22;21.90;90.00
10247;DHT22;5168;47.854;7.944;2023-07-13T15:11:52;22.20;91.00
10247;DHT22;5168;47.854;7.944;2023-07-13T15:14:17;22.30;90.60
10247;DHT22;5168;47.854;7.944;2023-07-13T15:16:43;22.80;90.50
10247;DHT22;5168;47.854;7.944;2023-07-13T15:31:25;21.70;92.30
10247;DHT22;5168;47.854;7.944;2023-07-13T15:33:57;22.00;92.60
10247;DHT22;5168;47.854;7.944;2023-07-13T15:36:24;21.80;92.00
10247;DHT22;5168;47.854;7.944;2023-07-13T15:38:54;21.60;91.50
10247;DHT22;5168;47.854;7.944;2023-07-13T15:41:27;21.30;93.00
10247;DHT22;5168;47.854;7.944;2023-07-13T15:43:55;21.30;92.40
10247;DHT22;5168;47.854;7.944;2023-07-13T15:46:24;21.60;92.00
10247;DHT22;5168;47.854;7.944;2023-07-13T15:48:54;21.90;93.00
10247;DHT22;5168;47.854;7.944;2023-07-13T15:51:24;21.90;91.70
10247;DHT22;5168;47.854;7.944;2023-07-13T15:53:53;21.90;93.00
10247;DHT22;5168;47.854;7.944;2023-07-13T15:56:22;21.90;92.80
10247;DHT22;5168;47.854;7.944;2023-07-13T15:58:50;21.40;93.40
10247;DHT22;5168;47.854;7.944;2023-07-13T16:01:17;21.80;92.20
10247;DHT22;5168;47.854;7.944;2023-07-13T16:03:43;21.40;93.80
10247;DHT22;5168;47.854;7.944;2023-07-13T16:06:15;21.00;93.20
10247;DHT22;5168;47.854;7.944;2023-07-13T16:08:41;20.60;94.00
10247;DHT22;5168;47.854;7.944;2023-07-13T16:11:18;20.90;93.00
10247;DHT22;5168;47.854;7.944;2023-07-13T16:13:45;20.90;92.80
10247;DHT22;5168;47.854;7.944;2023-07-13T16:16:12;20.70;92.70
10247;DHT22;5168;47.854;7.944;2023-07-13T16:18:38;20.70;95.40
10247;DHT22;5168;47.854;7.944;2023-07-13T16:21:09;21.10;96.10
10247;DHT22;5168;47.854;7.944;2023-07-13T16:23:36;20.60;95.50
10247;DHT22;5168;47.854;7.944;2023-07-13T16:28:30;20.60;94.10
10247;DHT22;5168;47.854;7.944;2023-07-13T16:30:56;20.20;95.70
10247;DHT22;5168;47.854;7.944;2023-07-13T16:33:21;20.60;95.80
10247;DHT22;5168;47.854;7.944;2023-07-13T16:38:18;20.10;94.20
10247;DHT22;5168;47.854;7.944;2023-07-13T16:40:44;20.00;96.30
10247;DHT22;5168;47.854;7.944;2023-07-13T16:43:15;20.10;96.70
10247;DHT22;5168;47.854;7.944;2023-07-13T16:45:40;19.80;97.00
10247;DHT22;5168;47.854;7.944;2023-07-13T16:48:15;20.20;96.70
10247;DHT22;5168;47.854;7.944;2023-07-13T16:50:42;19.30;96.60
10247;DHT22;5168;47.854;7.944;2023-07-13T16:53:28;20.00;97.30
10247;DHT22;5168;47.854;7.944;2023-07-13T16:55:54;19.50;97.10
10247;DHT22;5168;47.854;7.944;2023-07-13T16:58:24;19.50;96.30
10247;DHT22;5168;47.854;7.944;2023-07-13T17:00:51;19.30;95.10
10247;DHT22;5168;47.854;7.944;2023-07-13T17:03:17;19.00;96.90
10247;DHT22;5168;47.854;7.944;2023-07-13T17:05:45;19.30;96.90
10247;DHT22;5168;47.854;7.944;2023-07-13T17:08:20;19.70;96.40
10247;DHT22;5168;47.854;7.944;2023-07-13T17:10:51;19.70;97.80
10247;DHT22;5168;47.854;7.944;2023-07-13T17:13:19;19.30;97.90
10247;DHT22;5168;47.854;7.944;2023-07-13T17:15:48;19.60;96.70
10247;DHT22;5168;47.854;7.944;2023-07-13T17:18:16;19.80;97.50
10247;DHT22;5168;47.854;7.944;2023-07-13T17:20:43;19.60;96.80
10247;DHT22;5168;47.854;7.944;2023-07-13T17:23:18;19.40;98.10
10247;DHT22;5168;47.854;7.944;2023-07-13T17:25:45;18.80;98.10
10247;DHT22;5168;47.854;7.944;2023-07-13T17:28:11;19.40;98.70
10247;DHT22;5168;47.854;7.944;2023-07-13T17:30:38;19.30;99.80
10247;DHT22;5168;47.854;7.944;2023-07-13T17:33:07;19.30;98.10
10247;DHT22;5168;47.854;7.944;2023-07-13T17:35:35;18.80;96.60
10247;DHT22;5168;47.854;7.944;2023-07-13T17:38:03;19.00;99.30
10247;DHT22;5168;47.854;7.944;2023-07-13T17:40:30;18.70;98.50
10247;DHT22;5168;47.854;7.944;2023-07-13T17:42:57;18.10;99.60
10247;DHT22;5168;47.854;7.944;2023-07-13T17:45:28;18.80;98.70
10247;DHT22;5168;47.854;7.944;2023-07-13T17:47:54;17.90;99.90
10247;DHT22;5168;47.854;7.944;2023-07-13T17:50:29;18.00;99.30
10247;DHT22;5168;47.854;7.944;2023-07-13T17:53:21;18.20;99.60
10247;DHT22;5168;47.854;7.944;2023-07-13T17:55:47;18.30;98.70
10247;DHT22;5168;47.854;7.944;2023-07-13T17:58:13;18.20;99.90
10247;DHT22;5168;47.854;7.944;2023-07-13T18:00:40;18.40;99.90
10247;DHT22;5168;47.854;7.944;2023-07-13T18:03:14;17.40;98.80
10247;DHT22;5168;47.854;7.944;2023-07-13T18:05:40;17.70;99.90
10247;DHT22;5168;47.854;7.944;2023-07-13T18:08:21;17.60;99.90
10247;DHT22;5168;47.854;7.944;2023-07-13T18:13:12;17.20;99.90
10247;DHT22;5168;47.854;7.944;2023-07-13T18:15:38;17.90;99.90
10247;DHT22;5168;47.854;7.944;2023-07-13T18:18:04;17.50;99.90
10247;DHT22;5168;47.854;7.944;2023-07-13T18:20:30;17.90;99.90
10247;DHT22;5168;47.854;7.944;2023-07-13T18:22:57;17.40;99.40
10247;DHT22;5168;47.854;7.944;2023-07-13T18:25:24;17.30;99.90
10247;DHT22;5168;47.854;7.944;2023-07-13T18:27:51;17.20;99.50
10247;DHT22;5168;47.854;7.944;2023-07-13T18:30:18;17.20;99.90
10247;DHT22;5168;47.854;7.944;2023-07-13T18:32:50;17.20;99.90
10247;DHT22;5168;47.854;7.944;2023-07-13T18:35:31;17.50;99.90
10247;DHT22;5168;47.854;7.944;2023-07-13T18:37:58;16.60;99.90
10247;DHT22;5168;47.854;7.944;2023-07-13T18:40:24;16.70;99.90
10247;DHT22;5168;47.854;7.944;2023-07-13T18:42:52;16.80;99.90
10247;DHT22;5168;47.854;7.944;2023-07-13T18:45:18;16.90;99.90
10247;DHT22;5168;47.854;7.944;2023-07-13T18:47:46;16.60;99.90
10247;DHT22;5168;47.854;7.944;2023-07-13T18:50:33;16.60;99.90
10247;DHT22;5168;47.854;7.944;2023-07-13T18:52:59;16.90;99.90
10247;DHT22;5168;47.854;7.944;2023-07-13T18:57:51;16.40;99.90
10247;DHT22;5168;47.854;7.944;2023-07-13T19:00:22;15.80;99.90
10247;DHT22;5168;47.854;7.944;2023-07-13T19:02:49;14.80;99.90
10247;DHT22;5168;47.854;7.944;2023-07-13T19:05:41;16.20;99.90
10247;DHT22;5168;47.854;7.944;2023-07-13T19:08:20;15.70;99.90
10247;DHT22;5168;47.854;7.944;2023-07-13T19:10:51;16.20;99.90
10247;DHT22;5168;47.854;7.944;2023-07-13T19:13:28;16.50;99.90
10247;DHT22;5168;47.854;7.944;2023-07-13T19:15:55;16.40;99.90
10247;DHT22;5168;47.854;7.944;2023-07-13T19:18:22;15.70;99.90
10247;DHT22;5168;47.854;7.944;2023-07-13T19:20:50;16.00;99.90
10247;DHT22;5168;47.854;7.944;2023-07-13T19:25:52;15.80;99.90
10247;DHT22;5168;47.854;7.944;2023-07-13T19:28:30;15.60;99.90
10247;DHT22;5168;47.854;7.944;2023-07-13T19:38:20;15.80;99.90
10247;DHT22;5168;47.854;7.944;2023-07-13T19:40:48;15.40;99.90
10247;DHT22;5168;47.854;7.944;2023-07-13T19:43:14;15.00;99.90
10247;DHT22;5168;47.854;7.944;2023-07-13T19:45:40;15.30;99.90
10247;DHT22;5168;47.854;7.944;2023-07-13T19:48:06;15.20;99.90
10247;DHT22;5168;47.854;7.944;2023-07-13T19:50:33;15.00;99.90
10247;DHT22;5168;47.854;7.944;2023-07-13T19:52:59;15.20;99.90
10247;DHT22;5168;47.854;7.944;2023-07-13T19:55:25;14.80;99.90
10247;DHT22;5168;47.854;7.944;2023-07-13T19:57:53;14.90;99.90
10247;DHT22;5168;47.854;7.944;2023-07-13T20:00:20;14.60;99.90
10247;DHT22;5168;47.854;7.944;2023-07-13T20:02:47;15.20;99.90
10247;DHT22;5168;47.854;7.944;2023-07-13T20:05:15;14.70;99.90
10247;DHT22;5168;47.854;7.944;2023-07-13T20:07:43;15.10;99.90
10247;DHT22;5168;47.854;7.944;2023-07-13T20:10:24;14.40;99.90
10247;DHT22;5168;47.854;7.944;2023-07-13T20:12:51;14.60;99.90
10247;DHT22;5168;47.854;7.944;2023-07-13T20:15:19;14.50;99.90
10247;DHT22;5168;47.854;7.944;2023-07-13T20:17:48;14.10;99.90
10247;DHT22;5168;47.854;7.944;2023-07-13T20:22:52;14.80;99.90
10247;DHT22;5168;47.854;7.944;2023-07-13T20:25:24;14.50;99.90
10247;DHT22;5168;47.854;7.944;2023-07-13T20:27:53;14.30;99.90
10247;DHT22;5168;47.854;7.944;2023-07-13T20:37:46;14.60;99.90
10247;DHT22;5168;47.854;7.944;2023-07-13T20:40:20;14.20;99.90
10247;DHT22;5168;47.854;7.944;2023-07-13T20:42:46;14.20;99.90
10247;DHT22;5168;47.854;7.944;2023-07-13T20:45:12;14.40;99.90